sensor_id;sensor_type;location;lat;lon;timestamp;pressure;altitude;pressure_sealevel;temperature;humidity
10462;BME280;5278;42.656;23.374;2023-04-09T00:02:23;94838.81;;;8.50;97.89
10462;BME280;5278;42.656;23.374;2023-04-09T00:04:50;94835.28;;;8.51;97.77
10462;BME280;5278;42.656;23.374;2023-04-09T00:07:19;94847.22;;;8.52;97.48
10462;BME280;5278;42.656;23.374;2023-04-09T00:09:45;94834.59;;;8.49;97.66
10462;BME280;5278;42.656;23.374;2023-04-09T00:12:12;94837.06;;;8.50;97.57
10462;BME280;5278;42.656;23.374;2023-04-09T00:14:39;94836.22;;;8.42;97.71
10462;BME280;5278;42.656;23.374;2023-04-09T00:17:06;94807.28;;;8.20;97.31
10462;BME280;5278;42.656;23.374;2023-04-09T00:19:33;94851.28;;;8.46;98.08
10462;BME280;5278;42.656;23.374;2023-04-09T00:22:00;94846.72;;;8.40;97.91
10462;BME280;5278;42.656;23.374;2023-04-09T00:24:28;94852.19;;;8.37;98.56
10462;BME280;5278;42.656;23.374;2023-04-09T00:26:55;94847.00;;;8.37;98.60
10462;BME280;5278;42.656;23.374;2023-04-09T00:29:22;94851.91;;;8.40;98.86
10462;BME280;5278;42.656;23.374;2023-04-09T00:31:49;94846.25;;;8.45;98.32
10462;BME280;5278;42.656;23.374;2023-04-09T00:34:16;94848.50;;;8.40;98.68
10462;BME280;5278;42.656;23.374;2023-04-09T00:36:43;94843.69;;;8.27;99.36
10462;BME280;5278;42.656;23.374;2023-04-09T00:39:09;94852.97;;;8.30;99.71
10462;BME280;5278;42.656;23.374;2023-04-09T00:41:38;94848.22;;;8.25;100.00
10462;BME280;5278;42.656;23.374;2023-04-09T00:44:05;94869.09;;;8.23;100.00
10462;BME280;5278;42.656;23.374;2023-04-09T00:46:31;94849.34;;;8.22;100.00
10462;BME280;5278;42.656;23.374;2023-04-09T00:48:58;94844.34;;;8.21;100.00
10462;BME280;5278;42.656;23.374;2023-04-09T00:51:25;94843.69;;;8.27;100.00
10462;BME280;5278;42.656;23.374;2023-04-09T00:53:53;94836.59;;;8.29;100.00
10462;BME280;5278;42.656;23.374;2023-04-09T00:56:21;94855.03;;;8.26;100.00
10462;BME280;5278;42.656;23.374;2023-04-09T00:58:50;94848.38;;;8.23;100.00
10462;BME280;5278;42.656;23.374;2023-04-09T01:01:17;94848.53;;;8.22;99.94
10462;BME280;5278;42.656;23.374;2023-04-09T01:03:44;94830.84;;;8.09;100.00
10462;BME280;5278;42.656;23.374;2023-04-09T01:06:14;94839.00;;;8.22;100.00
10462;BME280;5278;42.656;23.374;2023-04-09T01:08:48;94849.19;;;8.24;100.00
10462;BME280;5278;42.656;23.374;2023-04-09T01:11:25;94852.66;;;8.33;100.00
10462;BME280;5278;42.656;23.374;2023-04-09T01:14:01;94853.81;;;8.38;100.00
10462;BME280;5278;42.656;23.374;2023-04-09T01:16:31;94851.28;;;8.46;99.43
10462;BME280;5278;42.656;23.374;2023-04-09T01:19:04;94804.72;;;8.20;99.57
10462;BME280;5278;42.656;23.374;2023-04-09T01:21:34;94852.88;;;8.47;99.06
10462;BME280;5278;42.656;23.374;2023-04-09T01:24:17;94850.72;;;8.35;98.69
10462;BME280;5278;42.656;23.374;2023-04-09T01:26:53;94859.00;;;8.38;98.84
10462;BME280;5278;42.656;23.374;2023-04-09T01:29:23;94851.84;;;8.32;99.41
10462;BME280;5278;42.656;23.374;2023-04-09T01:31:51;94857.03;;;8.32;99.65
10462;BME280;5278;42.656;23.374;2023-04-09T01:34:21;94848.03;;;8.18;99.80
10462;BME280;5278;42.656;23.374;2023-04-09T01:36:51;94851.56;;;8.17;99.89
10462;BME280;5278;42.656;23.374;2023-04-09T01:39:19;94859.69;;;8.22;99.79
10462;BME280;5278;42.656;23.374;2023-04-09T01:41:47;94854.84;;;8.19;100.00
10462;BME280;5278;42.656;23.374;2023-04-09T01:44:15;94860.38;;;8.25;99.85
10462;BME280;5278;42.656;23.374;2023-04-09T01:46:45;94842.38;;;8.15;99.68
10462;BME280;5278;42.656;23.374;2023-04-09T01:49:13;94855.59;;;8.12;99.62
10462;BME280;5278;42.656;23.374;2023-04-09T01:51:41;94864.97;;;8.13;99.97
10462;BME280;5278;42.656;23.374;2023-04-09T01:54:09;94856.41;;;8.12;100.00
10462;BME280;5278;42.656;23.374;2023-04-09T01:56:40;94848.16;;;8.09;100.00
10462;BME280;5278;42.656;23.374;2023-04-09T01:59:07;94820.06;;;7.88;100.00
10462;BME280;5278;42.656;23.374;2023-04-09T02:01:38;94848.97;;;8.09;100.00
10462;BME280;5278;42.656;23.374;2023-04-09T02:04:12;94765.16;;;7.43;100.00
10462;BME280;5278;42.656;23.374;2023-04-09T02:06:44;94847.03;;;8.11;100.00
10462;BME280;5278;42.656;23.374;2023-04-09T02:09:15;94777.69;;;7.55;100.00
10462;BME280;5278;42.656;23.374;2023-04-09T02:11:45;94849.72;;;10.48;100.00
10462;BME280;5278;42.656;23.374;2023-04-09T02:14:14;94846.19;;;11.02;100.00
10462;BME280;5278;42.656;23.374;2023-04-09T02:16:41;94845.28;;;11.86;90.08
10462;BME280;5278;42.656;23.374;2023-04-09T02:19:10;94849.38;;;12.62;81.77
10462;BME280;5278;42.656;23.374;2023-04-09T02:21:36;94851.84;;;13.14;78.37
10462;BME280;5278;42.656;23.374;2023-04-09T02:24:04;94747.25;;;12.94;75.00
10462;BME280;5278;42.656;23.374;2023-04-09T02:26:31;94836.91;;;13.93;71.48
10462;BME280;5278;42.656;23.374;2023-04-09T02:28:57;94838.34;;;14.30;68.31
10462;BME280;5278;42.656;23.374;2023-04-09T02:31:24;94845.00;;;14.33;67.60
10462;BME280;5278;42.656;23.374;2023-04-09T02:33:51;94823.97;;;14.41;67.30
10462;BME280;5278;42.656;23.374;2023-04-09T02:36:19;94842.22;;;14.69;65.81
10462;BME280;5278;42.656;23.374;2023-04-09T02:38:46;94834.16;;;14.63;65.58
10462;BME280;5278;42.656;23.374;2023-04-09T02:41:13;94837.13;;;14.60;64.57
10462;BME280;5278;42.656;23.374;2023-04-09T02:43:40;94829.50;;;14.59;64.71
10462;BME280;5278;42.656;23.374;2023-04-09T02:46:07;94813.59;;;14.60;63.45
10462;BME280;5278;42.656;23.374;2023-04-09T02:48:34;94842.25;;;14.75;63.78
10462;BME280;5278;42.656;23.374;2023-04-09T02:51:03;94835.34;;;14.61;64.56
10462;BME280;5278;42.656;23.374;2023-04-09T02:53:32;94831.53;;;14.63;64.00
10462;BME280;5278;42.656;23.374;2023-04-09T02:55:59;94828.13;;;14.63;64.19
10462;BME280;5278;42.656;23.374;2023-04-09T02:58:25;94830.16;;;14.68;63.84
10462;BME280;5278;42.656;23.374;2023-04-09T03:00:52;94788.84;;;14.22;64.22
10462;BME280;5278;42.656;23.374;2023-04-09T03:03:19;94827.81;;;14.45;64.43
10462;BME280;5278;42.656;23.374;2023-04-09T03:05:46;94830.91;;;14.61;63.64
10462;BME280;5278;42.656;23.374;2023-04-09T03:08:13;94818.31;;;14.37;63.82
10462;BME280;5278;42.656;23.374;2023-04-09T03:10:41;94831.88;;;14.26;64.71
10462;BME280;5278;42.656;23.374;2023-04-09T03:13:08;94829.63;;;13.89;62.86
10462;BME280;5278;42.656;23.374;2023-04-09T03:15:35;94830.28;;;13.27;65.03
10462;BME280;5278;42.656;23.374;2023-04-09T03:18:02;94820.88;;;12.46;67.99
10462;BME280;5278;42.656;23.374;2023-04-09T03:20:29;94824.38;;;11.94;70.97
10462;BME280;5278;42.656;23.374;2023-04-09T03:22:56;94824.16;;;11.44;73.80
10462;BME280;5278;42.656;23.374;2023-04-09T03:25:23;94833.84;;;11.04;75.97
10462;BME280;5278;42.656;23.374;2023-04-09T03:27:51;94828.50;;;10.67;79.04
10462;BME280;5278;42.656;23.374;2023-04-09T03:30:18;94839.88;;;10.35;80.39
10462;BME280;5278;42.656;23.374;2023-04-09T03:32:45;94835.53;;;10.03;82.70
10462;BME280;5278;42.656;23.374;2023-04-09T03:35:12;94845.81;;;9.80;83.99
10462;BME280;5278;42.656;23.374;2023-04-09T03:37:39;94841.59;;;9.55;85.72
10462;BME280;5278;42.656;23.374;2023-04-09T03:40:06;94844.66;;;9.42;87.28
10462;BME280;5278;42.656;23.374;2023-04-09T03:42:33;94847.75;;;9.30;88.06
10462;BME280;5278;42.656;23.374;2023-04-09T03:45:04;94835.75;;;9.21;89.33
10462;BME280;5278;42.656;23.374;2023-04-09T03:47:31;94845.63;;;9.09;89.91
10462;BME280;5278;42.656;23.374;2023-04-09T03:49:58;94842.03;;;9.02;89.95
10462;BME280;5278;42.656;23.374;2023-04-09T03:52:25;94842.50;;;8.89;90.40
10462;BME280;5278;42.656;23.374;2023-04-09T03:54:52;94849.44;;;8.81;91.73
10462;BME280;5278;42.656;23.374;2023-04-09T03:57:19;94852.66;;;8.67;92.22
10462;BME280;5278;42.656;23.374;2023-04-09T03:59:46;94853.28;;;8.60;93.06
10462;BME280;5278;42.656;23.374;2023-04-09T04:02:16;94848.56;;;8.56;93.25
10462;BME280;5278;42.656;23.374;2023-04-09T04:04:44;94855.06;;;8.60;93.69
10462;BME280;5278;42.656;23.374;2023-04-09T04:07:11;94861.34;;;8.57;93.80
10462;BME280;5278;42.656;23.374;2023-04-09T04:09:38;94850.81;;;8.51;93.93
10462;BME280;5278;42.656;23.374;2023-04-09T04:12:05;94863.63;;;8.60;94.25
10462;BME280;5278;42.656;23.374;2023-04-09T04:14:31;94854.56;;;8.64;93.76
10462;BME280;5278;42.656;23.374;2023-04-09T04:16:58;94861.22;;;8.67;93.26
10462;BME280;5278;42.656;23.374;2023-04-09T04:19:26;94863.63;;;8.60;93.91
10462;BME280;5278;42.656;23.374;2023-04-09T04:21:53;94852.47;;;8.60;94.47
10462;BME280;5278;42.656;23.374;2023-04-09T04:24:20;94868.69;;;8.70;94.06
10462;BME280;5278;42.656;23.374;2023-04-09T04:26:47;94861.41;;;8.74;93.25
10462;BME280;5278;42.656;23.374;2023-04-09T04:29:14;94859.97;;;8.79;93.31
10462;BME280;5278;42.656;23.374;2023-04-09T04:31:41;94857.69;;;8.76;93.40
10462;BME280;5278;42.656;23.374;2023-04-09T04:34:08;94872.09;;;8.79;93.12
10462;BME280;5278;42.656;23.374;2023-04-09T04:36:36;94862.53;;;8.71;92.75
10462;BME280;5278;42.656;23.374;2023-04-09T04:39:03;94861.25;;;8.75;92.42
10462;BME280;5278;42.656;23.374;2023-04-09T04:41:30;94771.06;;;8.20;91.52
10462;BME280;5278;42.656;23.374;2023-04-09T04:43:57;94864.00;;;8.74;92.07
10462;BME280;5278;42.656;23.374;2023-04-09T04:46:24;94860.59;;;8.73;91.96
10462;BME280;5278;42.656;23.374;2023-04-09T04:48:51;94864.31;;;8.71;92.04
10462;BME280;5278;42.656;23.374;2023-04-09T04:51:18;94868.53;;;8.80;92.28
10462;BME280;5278;42.656;23.374;2023-04-09T04:53:46;94875.03;;;8.84;92.41
10462;BME280;5278;42.656;23.374;2023-04-09T04:56:13;94770.97;;;8.30;91.33
10462;BME280;5278;42.656;23.374;2023-04-09T04:58:40;94867.50;;;9.06;91.17
10462;BME280;5278;42.656;23.374;2023-04-09T05:01:07;94872.81;;;9.13;90.30
10462;BME280;5278;42.656;23.374;2023-04-09T05:03:34;94878.03;;;9.21;90.05
10462;BME280;5278;42.656;23.374;2023-04-09T05:06:01;94882.75;;;9.34;89.42
10462;BME280;5278;42.656;23.374;2023-04-09T05:08:27;94887.78;;;9.35;89.18
10462;BME280;5278;42.656;23.374;2023-04-09T05:10:56;94874.00;;;9.43;89.43
10462;BME280;5278;42.656;23.374;2023-04-09T05:13:22;94874.16;;;9.58;89.60
10462;BME280;5278;42.656;23.374;2023-04-09T05:15:49;94874.50;;;9.79;88.91
10462;BME280;5278;42.656;23.374;2023-04-09T05:18:16;94870.91;;;9.88;88.21
10462;BME280;5278;42.656;23.374;2023-04-09T05:20:43;94882.88;;;10.13;87.41
10462;BME280;5278;42.656;23.374;2023-04-09T05:23:10;94880.59;;;10.26;87.23
10462;BME280;5278;42.656;23.374;2023-04-09T05:25:37;94816.56;;;9.86;85.75
10462;BME280;5278;42.656;23.374;2023-04-09T05:28:05;94889.06;;;10.28;86.17
10462;BME280;5278;42.656;23.374;2023-04-09T05:30:32;94881.28;;;10.20;86.36
10462;BME280;5278;42.656;23.374;2023-04-09T05:32:59;94840.75;;;9.79;86.25
10462;BME280;5278;42.656;23.374;2023-04-09T05:35:26;94879.66;;;9.87;86.63
10462;BME280;5278;42.656;23.374;2023-04-09T05:37:53;94877.56;;;9.82;87.31
10462;BME280;5278;42.656;23.374;2023-04-09T05:40:20;94887.47;;;9.95;87.20
10462;BME280;5278;42.656;23.374;2023-04-09T05:42:47;94874.78;;;9.92;87.09
10462;BME280;5278;42.656;23.374;2023-04-09T05:45:15;94880.00;;;10.00;87.63
10462;BME280;5278;42.656;23.374;2023-04-09T05:47:42;94882.56;;;10.08;87.79
10462;BME280;5278;42.656;23.374;2023-04-09T05:50:09;94893.25;;;10.13;86.35
10462;BME280;5278;42.656;23.374;2023-04-09T05:52:36;94879.66;;;10.19;85.87
10462;BME280;5278;42.656;23.374;2023-04-09T05:55:03;94884.66;;;10.29;86.06
10462;BME280;5278;42.656;23.374;2023-04-09T05:57:31;94878.47;;;10.38;85.27
10462;BME280;5278;42.656;23.374;2023-04-09T05:59:58;94875.84;;;10.54;85.44
10462;BME280;5278;42.656;23.374;2023-04-09T06:02:27;94873.19;;;10.70;84.51
10462;BME280;5278;42.656;23.374;2023-04-09T06:04:53;94882.84;;;10.85;82.46
10462;BME280;5278;42.656;23.374;2023-04-09T06:07:20;94877.00;;;10.91;82.15
10462;BME280;5278;42.656;23.374;2023-04-09T06:09:47;94878.72;;;10.98;81.81
10462;BME280;5278;42.656;23.374;2023-04-09T06:12:14;94786.69;;;10.54;81.59
10462;BME280;5278;42.656;23.374;2023-04-09T06:14:41;94877.53;;;11.32;79.66
10462;BME280;5278;42.656;23.374;2023-04-09T06:17:08;94883.28;;;11.50;78.86
10462;BME280;5278;42.656;23.374;2023-04-09T06:19:36;94873.03;;;11.71;76.41
10462;BME280;5278;42.656;23.374;2023-04-09T06:22:03;94883.09;;;11.97;74.82
10462;BME280;5278;42.656;23.374;2023-04-09T06:24:31;94906.81;;;12.02;74.41
10462;BME280;5278;42.656;23.374;2023-04-09T06:26:58;94845.34;;;11.78;74.61
10462;BME280;5278;42.656;23.374;2023-04-09T06:29:25;94887.38;;;12.27;73.63
10462;BME280;5278;42.656;23.374;2023-04-09T06:31:52;94878.94;;;12.40;72.35
10462;BME280;5278;42.656;23.374;2023-04-09T06:34:19;94882.53;;;12.54;70.23
10462;BME280;5278;42.656;23.374;2023-04-09T06:36:48;94878.72;;;12.85;69.30
10462;BME280;5278;42.656;23.374;2023-04-09T06:39:14;94878.19;;;13.05;66.53
10462;BME280;5278;42.656;23.374;2023-04-09T06:41:41;94889.59;;;13.18;66.60
10462;BME280;5278;42.656;23.374;2023-04-09T06:44:08;94882.00;;;13.38;66.11
10462;BME280;5278;42.656;23.374;2023-04-09T06:46:35;94875.97;;;13.38;64.40
10462;BME280;5278;42.656;23.374;2023-04-09T06:49:02;94887.72;;;13.48;64.51
10462;BME280;5278;42.656;23.374;2023-04-09T06:51:29;94884.00;;;13.57;64.76
10462;BME280;5278;42.656;23.374;2023-04-09T06:53:58;94889.13;;;13.51;63.26
10462;BME280;5278;42.656;23.374;2023-04-09T06:56:24;94884.59;;;13.38;62.51
10462;BME280;5278;42.656;23.374;2023-04-09T06:58:51;94898.69;;;13.08;63.94
10462;BME280;5278;42.656;23.374;2023-04-09T07:01:19;94898.81;;;12.85;64.43
10462;BME280;5278;42.656;23.374;2023-04-09T07:03:45;94884.97;;;12.84;65.31
10462;BME280;5278;42.656;23.374;2023-04-09T07:06:12;94882.34;;;13.14;64.21
10462;BME280;5278;42.656;23.374;2023-04-09T07:08:39;94874.22;;;13.23;62.93
10462;BME280;5278;42.656;23.374;2023-04-09T07:11:07;94892.00;;;13.05;65.06
10462;BME280;5278;42.656;23.374;2023-04-09T07:13:35;94878.19;;;12.75;65.41
10462;BME280;5278;42.656;23.374;2023-04-09T07:16:01;94896.38;;;12.54;65.87
10462;BME280;5278;42.656;23.374;2023-04-09T07:18:29;94911.63;;;12.28;66.24
10462;BME280;5278;42.656;23.374;2023-04-09T07:20:56;94900.19;;;11.99;67.61
10462;BME280;5278;42.656;23.374;2023-04-09T07:23:23;94895.63;;;11.79;68.14
10462;BME280;5278;42.656;23.374;2023-04-09T07:25:49;94903.19;;;11.65;68.85
10462;BME280;5278;42.656;23.374;2023-04-09T07:28:18;94903.47;;;11.48;69.34
10462;BME280;5278;42.656;23.374;2023-04-09T07:30:44;94910.81;;;11.44;69.66
10462;BME280;5278;42.656;23.374;2023-04-09T07:33:11;94919.16;;;11.32;70.69
10462;BME280;5278;42.656;23.374;2023-04-09T07:35:38;94899.59;;;11.44;70.00
10462;BME280;5278;42.656;23.374;2023-04-09T07:38:06;94896.53;;;11.86;68.49
10462;BME280;5278;42.656;23.374;2023-04-09T07:40:33;94905.41;;;12.14;67.76
10462;BME280;5278;42.656;23.374;2023-04-09T07:43:01;94912.72;;;12.33;66.98
10462;BME280;5278;42.656;23.374;2023-04-09T07:45:30;94907.81;;;12.16;64.78
10462;BME280;5278;42.656;23.374;2023-04-09T07:47:57;94903.72;;;12.36;65.74
10462;BME280;5278;42.656;23.374;2023-04-09T07:50:23;94921.53;;;12.47;63.77
10462;BME280;5278;42.656;23.374;2023-04-09T07:52:50;94908.06;;;12.58;63.57
10462;BME280;5278;42.656;23.374;2023-04-09T07:55:17;94814.94;;;11.93;62.66
10462;BME280;5278;42.656;23.374;2023-04-09T07:57:44;94917.50;;;12.74;62.89
10462;BME280;5278;42.656;23.374;2023-04-09T08:00:13;94827.56;;;12.34;62.03
10462;BME280;5278;42.656;23.374;2023-04-09T08:02:42;94920.81;;;12.82;62.12
10462;BME280;5278;42.656;23.374;2023-04-09T08:05:09;94928.47;;;12.69;62.15
10462;BME280;5278;42.656;23.374;2023-04-09T08:07:36;94925.03;;;12.39;63.42
10462;BME280;5278;42.656;23.374;2023-04-09T08:10:03;94944.78;;;12.34;64.46
10462;BME280;5278;42.656;23.374;2023-04-09T08:12:30;94932.75;;;12.33;64.74
10462;BME280;5278;42.656;23.374;2023-04-09T08:14:57;94932.47;;;12.28;64.95
10462;BME280;5278;42.656;23.374;2023-04-09T08:17:24;94933.22;;;11.99;66.06
10462;BME280;5278;42.656;23.374;2023-04-09T08:19:53;94939.22;;;11.77;68.20
10462;BME280;5278;42.656;23.374;2023-04-09T08:22:20;94942.09;;;11.59;68.80
10462;BME280;5278;42.656;23.374;2023-04-09T08:24:50;94942.13;;;11.51;69.03
10462;BME280;5278;42.656;23.374;2023-04-09T08:27:17;94932.00;;;11.56;69.37
10462;BME280;5278;42.656;23.374;2023-04-09T08:29:44;94934.63;;;11.56;69.67
10462;BME280;5278;42.656;23.374;2023-04-09T08:32:11;94942.31;;;11.49;69.66
10462;BME280;5278;42.656;23.374;2023-04-09T08:34:38;94945.44;;;11.45;70.49
10462;BME280;5278;42.656;23.374;2023-04-09T08:37:07;94934.09;;;11.38;70.92
10462;BME280;5278;42.656;23.374;2023-04-09T08:39:34;94937.94;;;11.50;70.30
10462;BME280;5278;42.656;23.374;2023-04-09T08:42:02;94929.25;;;11.35;70.83
10462;BME280;5278;42.656;23.374;2023-04-09T08:44:32;94927.75;;;11.63;70.87
10462;BME280;5278;42.656;23.374;2023-04-09T08:46:59;94940.41;;;11.74;70.41
10462;BME280;5278;42.656;23.374;2023-04-09T08:49:27;94924.09;;;11.72;70.63
10462;BME280;5278;42.656;23.374;2023-04-09T08:51:54;94934.50;;;11.80;70.63
10462;BME280;5278;42.656;23.374;2023-04-09T08:54:22;94908.84;;;11.69;69.63
10462;BME280;5278;42.656;23.374;2023-04-09T08:56:51;94916.66;;;11.92;69.50
10462;BME280;5278;42.656;23.374;2023-04-09T08:59:18;94927.13;;;12.06;69.53
10462;BME280;5278;42.656;23.374;2023-04-09T09:01:45;94928.88;;;12.29;68.10
10462;BME280;5278;42.656;23.374;2023-04-09T09:04:17;94919.56;;;12.49;67.58
10462;BME280;5278;42.656;23.374;2023-04-09T09:06:43;94910.56;;;12.66;66.76
10462;BME280;5278;42.656;23.374;2023-04-09T09:09:12;94943.56;;;12.74;66.44
10462;BME280;5278;42.656;23.374;2023-04-09T09:11:41;94927.38;;;12.93;64.52
10462;BME280;5278;42.656;23.374;2023-04-09T09:14:09;94904.81;;;13.15;63.59
10462;BME280;5278;42.656;23.374;2023-04-09T09:16:38;94905.19;;;13.69;61.69
10462;BME280;5278;42.656;23.374;2023-04-09T09:19:08;94906.75;;;13.85;59.90
10462;BME280;5278;42.656;23.374;2023-04-09T09:21:35;94900.66;;;13.77;60.47
10462;BME280;5278;42.656;23.374;2023-04-09T09:24:15;94854.53;;;13.42;60.59
10462;BME280;5278;42.656;23.374;2023-04-09T09:26:44;94910.41;;;13.69;60.50
10462;BME280;5278;42.656;23.374;2023-04-09T09:29:11;94898.38;;;13.96;59.59
10462;BME280;5278;42.656;23.374;2023-04-09T09:31:45;94789.34;;;13.76;58.44
10462;BME280;5278;42.656;23.374;2023-04-09T09:34:13;94879.25;;;16.13;52.47
10462;BME280;5278;42.656;23.374;2023-04-09T09:36:41;94860.78;;;16.92;48.18
10462;BME280;5278;42.656;23.374;2023-04-09T09:39:09;94868.94;;;17.22;46.85
10462;BME280;5278;42.656;23.374;2023-04-09T09:41:37;94872.03;;;17.44;46.53
10462;BME280;5278;42.656;23.374;2023-04-09T09:44:07;94871.13;;;18.26;44.45
10462;BME280;5278;42.656;23.374;2023-04-09T09:46:36;94861.53;;;19.29;41.24
10462;BME280;5278;42.656;23.374;2023-04-09T09:49:03;94857.19;;;19.83;39.63
10462;BME280;5278;42.656;23.374;2023-04-09T09:51:31;94844.44;;;20.79;37.75
10462;BME280;5278;42.656;23.374;2023-04-09T09:53:58;94856.13;;;21.46;35.35
10462;BME280;5278;42.656;23.374;2023-04-09T09:56:29;94839.19;;;22.04;34.75
10462;BME280;5278;42.656;23.374;2023-04-09T09:59:12;94820.31;;;22.34;33.65
10462;BME280;5278;42.656;23.374;2023-04-09T10:01:42;94836.94;;;21.39;34.92
10462;BME280;5278;42.656;23.374;2023-04-09T10:04:13;94837.84;;;21.90;34.34
10462;BME280;5278;42.656;23.374;2023-04-09T10:06:42;94828.94;;;23.01;32.53
10462;BME280;5278;42.656;23.374;2023-04-09T10:09:10;94829.47;;;24.59;30.08
10462;BME280;5278;42.656;23.374;2023-04-09T10:11:38;94824.81;;;25.39;28.35
10462;BME280;5278;42.656;23.374;2023-04-09T10:14:09;94809.78;;;26.05;27.74
10462;BME280;5278;42.656;23.374;2023-04-09T10:16:36;94811.59;;;26.70;26.77
10462;BME280;5278;42.656;23.374;2023-04-09T10:19:03;94800.34;;;27.68;25.84
10462;BME280;5278;42.656;23.374;2023-04-09T10:21:37;94811.50;;;27.75;24.81
10462;BME280;5278;42.656;23.374;2023-04-09T10:24:06;94809.75;;;26.66;25.89
10462;BME280;5278;42.656;23.374;2023-04-09T10:26:35;94817.19;;;26.94;25.40
10462;BME280;5278;42.656;23.374;2023-04-09T10:29:06;94826.00;;;25.88;26.67
10462;BME280;5278;42.656;23.374;2023-04-09T10:32:05;94815.97;;;24.29;28.33
10462;BME280;5278;42.656;23.374;2023-04-09T10:34:34;94815.81;;;23.11;30.38
10462;BME280;5278;42.656;23.374;2023-04-09T10:37:01;94816.56;;;22.13;31.93
10462;BME280;5278;42.656;23.374;2023-04-09T10:39:30;94763.63;;;21.07;32.69
10462;BME280;5278;42.656;23.374;2023-04-09T10:41:59;94813.53;;;21.31;32.87
10462;BME280;5278;42.656;23.374;2023-04-09T10:44:28;94740.56;;;20.62;33.84
10462;BME280;5278;42.656;23.374;2023-04-09T10:46:56;94810.25;;;20.49;34.89
10462;BME280;5278;42.656;23.374;2023-04-09T10:49:25;94808.81;;;19.89;36.04
10462;BME280;5278;42.656;23.374;2023-04-09T10:51:53;94797.41;;;19.35;37.03
10462;BME280;5278;42.656;23.374;2023-04-09T10:54:40;94791.13;;;18.88;38.43
10462;BME280;5278;42.656;23.374;2023-04-09T10:57:16;94803.91;;;18.48;38.93
10462;BME280;5278;42.656;23.374;2023-04-09T10:59:44;94788.97;;;17.81;40.22
10462;BME280;5278;42.656;23.374;2023-04-09T11:05:32;94798.44;;;16.81;42.60
10462;BME280;5278;42.656;23.374;2023-04-09T11:08:06;94728.44;;;15.98;44.00
10462;BME280;5278;42.656;23.374;2023-04-09T11:10:34;94784.22;;;16.24;46.28
10462;BME280;5278;42.656;23.374;2023-04-09T11:13:01;94721.19;;;15.40;46.79
10462;BME280;5278;42.656;23.374;2023-04-09T11:15:29;94779.25;;;15.77;47.09
10462;BME280;5278;42.656;23.374;2023-04-09T11:17:57;94782.69;;;15.58;49.47
10462;BME280;5278;42.656;23.374;2023-04-09T11:20:25;94785.03;;;15.39;49.45
10462;BME280;5278;42.656;23.374;2023-04-09T11:22:53;94784.25;;;15.32;49.63
10462;BME280;5278;42.656;23.374;2023-04-09T11:25:21;94783.63;;;15.30;49.04
10462;BME280;5278;42.656;23.374;2023-04-09T11:27:49;94712.69;;;14.79;48.77
10462;BME280;5278;42.656;23.374;2023-04-09T11:30:16;94782.03;;;15.36;48.13
10462;BME280;5278;42.656;23.374;2023-04-09T11:32:43;94775.63;;;15.52;48.10
10462;BME280;5278;42.656;23.374;2023-04-09T11:35:12;94770.81;;;15.68;47.18
10462;BME280;5278;42.656;23.374;2023-04-09T11:37:41;94763.94;;;15.67;46.74
10462;BME280;5278;42.656;23.374;2023-04-09T11:40:14;94766.16;;;15.77;45.62
10462;BME280;5278;42.656;23.374;2023-04-09T11:42:42;94700.84;;;15.29;44.85
10462;BME280;5278;42.656;23.374;2023-04-09T11:45:10;94760.50;;;15.93;45.00
10462;BME280;5278;42.656;23.374;2023-04-09T11:47:38;94758.66;;;16.00;42.95
10462;BME280;5278;42.656;23.374;2023-04-09T11:50:06;94765.53;;;15.94;42.20
10462;BME280;5278;42.656;23.374;2023-04-09T11:52:33;94560.56;;;14.62;40.13
10462;BME280;5278;42.656;23.374;2023-04-09T11:55:23;94747.44;;;15.67;41.37
10462;BME280;5278;42.656;23.374;2023-04-09T11:57:52;94766.97;;;15.51;40.29
10462;BME280;5278;42.656;23.374;2023-04-09T12:00:20;94750.19;;;15.26;39.64
10462;BME280;5278;42.656;23.374;2023-04-09T12:02:57;94759.63;;;15.00;40.63
10462;BME280;5278;42.656;23.374;2023-04-09T12:05:26;94759.41;;;14.95;40.78
10462;BME280;5278;42.656;23.374;2023-04-09T12:07:56;94756.22;;;15.06;41.55
10462;BME280;5278;42.656;23.374;2023-04-09T12:10:27;94692.66;;;14.45;42.58
10462;BME280;5278;42.656;23.374;2023-04-09T12:13:00;94738.50;;;15.15;42.33
10462;BME280;5278;42.656;23.374;2023-04-09T12:15:31;94757.91;;;15.54;41.81
10462;BME280;5278;42.656;23.374;2023-04-09T12:18:12;94738.69;;;16.06;41.26
10462;BME280;5278;42.656;23.374;2023-04-09T12:20:41;94741.66;;;16.35;39.62
10462;BME280;5278;42.656;23.374;2023-04-09T12:23:10;94673.34;;;16.11;39.09
10462;BME280;5278;42.656;23.374;2023-04-09T12:25:40;94716.44;;;16.86;37.98
10462;BME280;5278;42.656;23.374;2023-04-09T12:28:09;94740.94;;;17.04;37.91
10462;BME280;5278;42.656;23.374;2023-04-09T12:30:36;94646.34;;;16.55;38.13
10462;BME280;5278;42.656;23.374;2023-04-09T12:33:03;94725.03;;;17.31;37.89
10462;BME280;5278;42.656;23.374;2023-04-09T12:35:30;94757.81;;;17.21;37.93
10462;BME280;5278;42.656;23.374;2023-04-09T12:37:59;94747.31;;;17.21;38.09
10462;BME280;5278;42.656;23.374;2023-04-09T12:40:26;94720.06;;;17.47;37.90
10462;BME280;5278;42.656;23.374;2023-04-09T12:42:55;94716.53;;;17.85;36.77
10462;BME280;5278;42.656;23.374;2023-04-09T12:45:21;94715.16;;;18.00;36.79
10462;BME280;5278;42.656;23.374;2023-04-09T12:47:48;94714.84;;;17.90;36.89
10462;BME280;5278;42.656;23.374;2023-04-09T12:50:15;94719.19;;;17.60;37.51
10462;BME280;5278;42.656;23.374;2023-04-09T12:52:42;94726.66;;;17.32;38.21
10462;BME280;5278;42.656;23.374;2023-04-09T12:55:11;94727.75;;;16.86;39.43
10462;BME280;5278;42.656;23.374;2023-04-09T12:57:38;94713.63;;;16.81;39.89
10462;BME280;5278;42.656;23.374;2023-04-09T13:00:08;94735.47;;;16.74;40.29
10462;BME280;5278;42.656;23.374;2023-04-09T13:02:35;94724.03;;;16.62;40.94
10462;BME280;5278;42.656;23.374;2023-04-09T13:05:02;94727.50;;;16.43;40.81
10462;BME280;5278;42.656;23.374;2023-04-09T13:07:29;94715.41;;;16.35;40.57
10462;BME280;5278;42.656;23.374;2023-04-09T13:09:56;94720.63;;;16.49;40.66
10462;BME280;5278;42.656;23.374;2023-04-09T13:12:23;94714.53;;;16.55;41.16